Merion Station, PA (19066)

4:03 PM EDT on August 04, 2015 (GMT -0400)
Bala Cynwyd Backyard | | Change Station
CLOSE
Current Station
Personal Weather Station
Location: Bala Cynwyd, PA
Elevation: 256 ft
Nearby Weather Stations

Elev 256 ft 40.02 °N, 75.23 °W | Updated 3 minutes ago

Partly Cloudy
Partly Cloudy
91.3 °F
Feels Like 91 °F
N
2.0
Wind Variable Wind from SE
Gusts 2.0 mph

Today
High -- | Low -- °F
--% Chance of Precip.
Yesterday
High -- | Low -- °F
Precip. -- in
6:01 AM 8:11 PM
Waning Gibbous, 75% visible
Pressure 29.88 in
Visibility 10.0 miles
Clouds Scattered Clouds 7000 ft
Heat Index 91 °F
Dew Point 61 °F
Humidity 36%
Rainfall 0.02 in
Snow Depth Not available.
UV 5 out of 12
Pollen 7.30 out of 12
Air Quality Not available.
Flu Activity Not available.
METAR KPHL 041954Z 28010KT 10SM SCT070 33/14 A2988 RMK AO2 SLP118 T03280144

More Conditions Fewer Conditions

Pressure 29.88 in
Visibility 10.0 miles
Clouds Scattered Clouds 7000 ft
Heat Index 91 °F
Dew Point 61 °F
Humidity 36%
Rainfall 0.02 in
Snow Depth Not available.
UV 5 out of 12
Pollen 7.30 out of 12
Air Quality Not available.
Flu Activity Not available.
METAR KPHL 041954Z 28010KT 10SM SCT070 33/14 A2988 RMK AO2 SLP118 T03280144

More Conditions Fewer Conditions

10-Day Weather Forecast

×

Almanac

Astronomy

Aug. 04, 2015 Rise Set
Actual Time
Civil Twilight
Nautical Twilight
Astronomical Twilight
Moon
Length of Visible Light
Length of Day
Tomorrow will be .
, % of the Moon is Illuminated

Today's Extremes

State Highs State Lows

Community

WunderPhotos

Upload Photos

1,843,962 photos uploaded!

WunderBlogs® & News

Nearby

Air Quality

  Air Quality AQ Index Pollutant
Not available.

Snow Depth

Station Depth Elevation

Earthquake Activity

City Distance Mag. Time & Date
Minimum magnitude displayed is 2.5.

Coastal Water Temperatures

Place Temperature

Stations

Nearby Weather Stations

Station Location Temp. Windchill Dew Point Humidity Wind Precip. Elev Updated Type